Time;durP1;ratioP1;P1;durP2;ratioP2;P2;SDS_P1;SDS_P2;PMS_P1;PMS_P2;Temp;Humidity;BMP_temperature;BMP_pressure;BME280_temperature;BME280_humidity;BME280_pressure;Samples;Min_cycle;Max_cycle;Signal;HPM_P1;HPM_P2
2023/04/17 00:01:02;;;;;;;23.85;17.05;;;10.10;99.90;;;;;;5072448;28;20468;-52
2023/04/17 00:03:30;;;;;;;24.42;17.10;;;10.10;99.90;;;;;;5072701;28;20024;-47
2023/04/17 00:05:57;;;;;;;22.50;15.57;;;10.10;99.90;;;;;;5072179;28;20602;-47
2023/04/17 00:08:22;;;;;;;25.75;16.35;;;10.10;99.90;;;;;;5072163;28;20023;-48
2023/04/17 00:10:48;;;;;;;21.27;16.38;;;10.10;99.90;;;;;;5071980;28;20017;-48
2023/04/17 00:13:13;;;;;;;21.83;16.45;;;10.10;99.90;;;;;;5054051;28;20133;-47
2023/04/17 00:15:39;;;;;;;20.63;16.10;;;10.10;99.90;;;;;;5072272;28;20456;-49
2023/04/17 00:18:04;;;;;;;24.83;16.10;;;10.10;99.90;;;;;;5054395;28;20120;-50
2023/04/17 00:20:30;;;;;;;21.88;15.57;;;10.10;99.90;;;;;;5076489;22;20131;-45
2023/04/17 00:22:55;;;;;;;23.33;17.42;;;10.10;99.90;;;;;;5072009;28;20017;-49
2023/04/17 00:25:21;;;;;;;22.40;16.80;;;10.20;99.90;;;;;;5071478;28;20032;-47
2023/04/17 00:27:47;;;;;;;22.58;16.52;;;10.20;99.90;;;;;;5071836;28;20496;-49
2023/04/17 00:30:14;;;;;;;27.00;17.05;;;10.20;99.90;;;;;;5071974;28;20047;-46
2023/04/17 00:32:40;;;;;;;24.83;17.83;;;10.30;99.90;;;;;;5071972;28;20476;-43
2023/04/17 00:35:06;;;;;;;25.58;17.38;;;10.30;99.90;;;;;;5071534;28;20028;-46
2023/04/17 00:37:31;;;;;;;21.42;16.42;;;10.30;99.90;;;;;;5071686;28;20024;-47
2023/04/17 00:39:57;;;;;;;23.30;16.92;;;10.30;99.90;;;;;;5072108;28;20487;-47
2023/04/17 00:42:22;;;;;;;20.88;16.42;;;10.30;99.90;;;;;;5071849;28;20029;-49
2023/04/17 00:44:47;;;;;;;21.30;16.50;;;10.30;99.90;;;;;;5071285;28;20400;-46
2023/04/17 00:47:13;;;;;;;29.00;17.85;;;10.40;99.90;;;;;;5071514;28;20103;-49
2023/04/17 00:49:39;;;;;;;25.95;18.13;;;10.40;99.90;;;;;;5071608;28;20522;-46
2023/04/17 00:52:05;;;;;;;24.85;17.15;;;10.40;99.90;;;;;;5071681;28;20052;-51
2023/04/17 00:54:31;;;;;;;25.92;18.05;;;10.40;99.90;;;;;;5071522;28;20050;-49
2023/04/17 00:56:57;;;;;;;23.63;17.05;;;10.40;99.90;;;;;;5071431;28;20021;-46
2023/04/17 00:59:24;;;;;;;30.13;16.80;;;10.40;99.90;;;;;;5071509;28;20541;-48
2023/04/17 01:01:50;;;;;;;22.13;17.33;;;10.40;99.90;;;;;;5070504;28;20120;-49
2023/04/17 01:04:15;;;;;;;21.58;17.65;;;10.40;99.90;;;;;;5071472;28;20123;-46
2023/04/17 01:06:41;;;;;;;25.80;16.58;;;10.40;99.90;;;;;;5071437;28;20029;-46
2023/04/17 01:09:07;;;;;;;26.23;18.35;;;10.40;99.90;;;;;;5071169;28;20020;-48
2023/04/17 01:11:33;;;;;;;24.70;17.75;;;10.40;99.90;;;;;;5071349;28;20060;-49
2023/04/17 01:13:58;;;;;;;26.15;16.85;;;10.40;99.90;;;;;;5071142;28;20098;-48
2023/04/17 01:16:24;;;;;;;26.17;18.40;;;10.40;99.90;;;;;;5071188;28;20025;-47
2023/04/17 01:18:49;;;;;;;25.27;18.63;;;10.40;99.90;;;;;;5053219;28;20028;-51
2023/04/17 01:21:15;;;;;;;27.45;17.83;;;10.40;99.90;;;;;;5071091;28;20028;-43
2023/04/17 01:23:51;;;;;;;27.85;18.38;;;10.20;99.90;;;;;;5071005;28;20104;-48
2023/04/17 01:26:24;;;;;;;25.38;18.63;;;10.20;99.90;;;;;;5071117;28;20050;-42
2023/04/17 01:28:54;;;;;;;29.73;19.23;;;10.10;99.90;;;;;;5070883;28;20028;-45
2023/04/17 01:31:21;;;;;;;26.98;18.20;;;10.10;99.90;;;;;;5071626;28;20020;-43
2023/04/17 01:33:47;;;;;;;28.92;19.73;;;10.10;99.90;;;;;;5071443;28;20173;-45
2023/04/17 01:36:13;;;;;;;27.15;18.75;;;10.10;99.90;;;;;;5070847;28;20500;-48
2023/04/17 01:38:38;;;;;;;27.40;18.25;;;10.40;99.90;;;;;;5070877;28;20049;-45
2023/04/17 01:41:08;;;;;;;29.90;18.85;;;10.00;99.90;;;;;;5071353;28;20024;-47
2023/04/17 01:43:42;;;;;;;26.63;19.50;;;10.00;99.90;;;;;;5070372;28;20062;-44
2023/04/17 01:46:08;;;;;;;27.45;19.83;;;10.00;99.90;;;;;;5070716;28;20025;-45
2023/04/17 01:48:34;;;;;;;26.10;19.25;;;10.00;99.90;;;;;;5070779;28;20021;-44
2023/04/17 01:51:00;;;;;;;29.63;20.13;;;10.00;99.90;;;;;;5070640;28;20033;-44
2023/04/17 01:53:26;;;;;;;28.73;20.05;;;10.00;99.90;;;;;;5070679;28;20025;-48
2023/04/17 01:55:52;;;;;;;26.42;20.20;;;10.00;99.90;;;;;;5071216;28;20365;-44
2023/04/17 01:58:17;;;;;;;28.63;20.05;;;10.00;99.90;;;;;;5052903;28;20056;-46
2023/04/17 02:00:50;;;;;;;27.52;20.88;;;10.00;99.90;;;;;;5070886;28;20025;-43
2023/04/17 02:03:15;;;;;;;31.33;18.63;;;10.00;99.90;;;;;;5071115;28;20488;-44
2023/04/17 02:05:44;;;;;;;35.53;23.70;;;9.90;99.90;;;;;;5070686;28;20078;-44
2023/04/17 02:08:10;;;;;;;28.25;19.90;;;9.90;99.90;;;;;;5052474;28;20055;-46
2023/04/17 02:10:35;;;;;;;32.60;20.20;;;9.90;99.90;;;;;;5070793;28;20461;-48
2023/04/17 02:13:01;;;;;;;28.40;20.17;;;9.90;99.90;;;;;;5072043;28;20504;-47
2023/04/17 02:15:26;;;;;;;31.70;21.52;;;9.90;99.90;;;;;;5074125;28;20021;-46
2023/04/17 02:17:52;;;;;;;29.35;20.83;;;9.90;99.90;;;;;;5074254;28;20037;-47
2023/04/17 02:20:17;;;;;;;28.08;20.13;;;9.90;99.90;;;;;;5074021;28;20068;-42
2023/04/17 02:22:43;;;;;;;29.02;19.75;;;10.00;99.90;;;;;;5074177;28;20031;-46
2023/04/17 02:25:08;;;;;;;27.23;19.98;;;10.00;99.90;;;;;;5073991;28;20025;-49
2023/04/17 02:27:35;;;;;;;28.52;20.55;;;10.00;99.90;;;;;;5073983;28;20032;-45
2023/04/17 02:30:00;;;;;;;24.98;19.58;;;10.10;99.90;;;;;;5074270;28;20136;-45
2023/04/17 02:32:27;;;;;;;29.58;20.27;;;10.10;99.90;;;;;;5073983;28;20618;-47
2023/04/17 02:34:53;;;;;;;27.10;21.08;;;10.10;99.90;;;;;;5073730;28;20025;-45
2023/04/17 02:37:18;;;;;;;28.33;19.13;;;10.10;99.90;;;;;;5074022;28;20481;-49
2023/04/17 02:39:44;;;;;;;29.58;20.92;;;10.10;99.90;;;;;;5055855;28;20032;-44
2023/04/17 02:42:11;;;;;;;27.73;20.30;;;10.20;99.90;;;;;;5073543;28;20064;-48
2023/04/17 02:44:38;;;;;;;27.95;20.70;;;10.10;99.90;;;;;;5073938;28;20028;-45
2023/04/17 02:47:04;;;;;;;28.48;21.02;;;10.10;99.90;;;;;;5073571;28;20024;-48
2023/04/17 02:49:30;;;;;;;28.10;20.73;;;10.20;99.90;;;;;;5073625;28;20025;-47
2023/04/17 02:51:55;;;;;;;29.58;20.98;;;10.20;99.90;;;;;;5073579;28;20024;-46
2023/04/17 02:54:21;;;;;;;28.65;21.13;;;10.20;99.90;;;;;;5073958;28;20476;-46
2023/04/17 02:56:46;;;;;;;27.25;21.17;;;10.20;99.90;;;;;;5073833;28;20488;-44
2023/04/17 02:59:12;;;;;;;26.75;19.88;;;10.20;99.90;;;;;;5073309;28;20409;-46
2023/04/17 03:01:39;;;;;;;28.77;20.23;;;10.20;99.90;;;;;;5073486;28;20070;-46
2023/04/17 03:04:05;;;;;;;27.33;20.77;;;10.10;99.90;;;;;;5073117;28;20442;-43
2023/04/17 03:06:31;;;;;;;28.80;21.48;;;10.10;99.90;;;;;;5073286;28;20029;-45
2023/04/17 03:08:56;;;;;;;28.58;20.88;;;10.10;99.90;;;;;;5073858;28;20107;-44
2023/04/17 03:11:22;;;;;;;27.42;20.00;;;10.10;99.90;;;;;;5075170;28;20032;-43
2023/04/17 03:13:47;;;;;;;32.67;22.20;;;10.00;99.90;;;;;;5073709;28;20121;-45
2023/04/17 03:16:13;;;;;;;29.83;21.13;;;10.00;99.90;;;;;;5073178;28;20106;-46
2023/04/17 03:18:40;;;;;;;31.27;22.13;;;9.90;99.90;;;;;;5072955;28;20020;-44
2023/04/17 03:21:06;;;;;;;28.75;21.40;;;10.00;99.90;;;;;;5073370;28;20059;-45
2023/04/17 03:23:31;;;;;;;30.13;21.90;;;9.90;99.90;;;;;;5073048;28;20032;-47
2023/04/17 03:25:57;;;;;;;31.67;22.52;;;9.80;99.90;;;;;;5072947;28;20390;-44
2023/04/17 03:28:22;;;;;;;30.90;21.33;;;9.80;99.90;;;;;;5073362;28;20119;-45
2023/04/17 03:30:49;;;;;;;32.50;22.17;;;9.70;99.90;;;;;;5073050;28;20020;-43
2023/04/17 03:33:15;;;;;;;33.92;23.25;;;9.70;99.90;;;;;;5072612;28;20020;-45
2023/04/17 03:35:41;;;;;;;31.40;22.80;;;9.70;99.90;;;;;;5072899;28;20074;-46
2023/04/17 03:38:07;;;;;;;29.70;23.02;;;9.70;99.90;;;;;;5072689;28;20104;-45
2023/04/17 03:40:33;;;;;;;29.83;21.80;;;9.60;99.90;;;;;;5072702;28;20059;-44
2023/04/17 03:43:00;;;;;;;40.10;24.67;;;9.60;99.90;;;;;;5072696;28;20504;-43
2023/04/17 03:45:25;;;;;;;35.90;24.35;;;9.60;99.90;;;;;;5072397;28;20401;-45
2023/04/17 03:47:51;;;;;;;31.48;24.17;;;9.50;99.90;;;;;;5054558;28;20024;-46
2023/04/17 03:50:16;;;;;;;34.15;23.40;;;9.50;99.90;;;;;;5072392;28;20020;-50
2023/04/17 03:52:42;;;;;;;35.13;24.35;;;9.40;99.90;;;;;;5072549;28;20051;-49
2023/04/17 03:55:09;;;;;;;35.22;24.65;;;9.50;99.90;;;;;;5072254;28;20377;-51
2023/04/17 03:57:34;;;;;;;36.17;24.67;;;9.40;99.90;;;;;;5072435;28;20049;-44
2023/04/17 04:00:00;;;;;;;37.35;24.38;;;9.40;99.90;;;;;;5072089;28;20498;-47
2023/04/17 04:02:26;;;;;;;34.03;25.30;;;9.50;99.90;;;;;;5072399;28;20028;-47
2023/04/17 04:04:52;;;;;;;32.35;23.08;;;9.50;99.90;;;;;;5072657;28;20047;-47
2023/04/17 04:07:17;;;;;;;32.20;23.58;;;9.50;99.90;;;;;;5072096;28;20480;-47
2023/04/17 04:09:43;;;;;;;37.85;25.48;;;9.50;99.90;;;;;;5072357;28;20027;-48
2023/04/17 04:12:09;;;;;;;35.70;25.98;;;9.50;99.90;;;;;;5054763;28;20013;-48
2023/04/17 04:14:34;;;;;;;34.65;25.05;;;9.50;99.90;;;;;;5071742;28;20032;-46
2023/04/17 04:17:00;;;;;;;35.78;25.50;;;9.50;99.90;;;;;;5071923;28;20024;-45
2023/04/17 04:19:25;;;;;;;36.85;25.38;;;9.50;99.90;;;;;;5071908;28;20037;-45
2023/04/17 04:21:52;;;;;;;31.23;24.20;;;9.50;99.90;;;;;;5072002;28;20231;-45
2023/04/17 04:24:19;;;;;;;34.10;23.77;;;9.40;99.90;;;;;;5071693;28;20020;-42
2023/04/17 04:26:48;;;;;;;34.58;24.92;;;9.40;99.90;;;;;;5071814;28;20048;-48
2023/04/17 04:29:15;;;;;;;32.30;23.63;;;9.40;99.90;;;;;;5071427;28;20105;-44
2023/04/17 04:31:41;;;;;;;37.90;24.27;;;9.40;99.90;;;;;;5071660;28;20025;-48
2023/04/17 04:34:07;;;;;;;34.13;25.33;;;9.40;99.90;;;;;;5071521;28;20112;-48
2023/04/17 04:36:35;;;;;;;38.38;25.45;;;9.40;99.90;;;;;;5071574;28;20078;-48
2023/04/17 04:39:01;;;;;;;30.73;23.75;;;9.40;99.90;;;;;;5071564;28;20031;-46
2023/04/17 04:41:28;;;;;;;34.22;25.00;;;9.50;99.90;;;;;;5071607;28;20025;-50
2023/04/17 04:43:54;;;;;;;38.40;25.63;;;9.40;99.90;;;;;;5071807;28;20021;-46
2023/04/17 04:46:20;;;;;;;36.30;25.02;;;9.40;99.90;;;;;;5071729;28;20029;-46
2023/04/17 04:48:45;;;;;;;31.63;23.42;;;9.40;99.90;;;;;;5071749;28;20032;-49
2023/04/17 04:51:10;;;;;;;38.25;26.02;;;9.40;99.90;;;;;;5071397;28;20056;-44
2023/04/17 04:53:36;;;;;;;35.72;26.45;;;9.30;99.90;;;;;;5071323;28;20047;-47
2023/04/17 04:56:01;;;;;;;34.80;24.20;;;9.30;99.90;;;;;;5071510;28;20056;-46
2023/04/17 04:58:30;;;;;;;35.60;27.25;;;9.30;99.90;;;;;;5071337;28;20551;-48
2023/04/17 05:00:56;;;;;;;35.28;26.48;;;9.40;99.90;;;;;;5071442;28;20027;-47
2023/04/17 05:03:22;;;;;;;38.38;28.67;;;9.40;99.90;;;;;;5071156;28;20029;-44
2023/04/17 05:05:49;;;;;;;38.53;27.63;;;9.40;99.90;;;;;;5071553;28;20028;-45
2023/04/17 05:08:14;;;;;;;43.30;29.02;;;9.40;99.90;;;;;;5071418;28;20017;-44
2023/04/17 05:10:40;;;;;;;39.60;28.63;;;9.40;99.90;;;;;;5071253;28;20070;-45
2023/04/17 05:13:06;;;;;;;38.03;28.38;;;9.40;99.90;;;;;;5071590;28;20033;-45
2023/04/17 05:15:31;;;;;;;37.10;27.73;;;9.40;99.90;;;;;;5071851;28;20032;-45
2023/04/17 05:17:57;;;;;;;43.78;28.15;;;9.40;99.90;;;;;;5071668;28;20392;-47
2023/04/17 05:20:22;;;;;;;42.58;28.27;;;9.40;99.90;;;;;;5071053;28;20400;-50
2023/04/17 05:22:48;;;;;;;40.15;28.58;;;9.50;99.90;;;;;;5053703;28;20480;-46
2023/04/17 05:25:15;;;;;;;38.65;27.27;;;9.50;99.90;;;;;;5072268;28;20506;-45
2023/04/17 05:27:40;;;;;;;41.05;27.63;;;9.60;99.90;;;;;;5071195;28;20052;-46
2023/04/17 05:30:07;;;;;;;50.92;27.20;;;9.70;99.90;;;;;;5071123;28;20048;-48
2023/04/17 05:32:33;;;;;;;37.03;26.92;;;9.80;99.90;;;;;;5071233;28;20399;-45
2023/04/17 05:34:59;;;;;;;42.25;27.25;;;9.90;99.90;;;;;;5070910;28;20051;-46
2023/04/17 05:37:25;;;;;;;36.85;25.85;;;9.90;99.90;;;;;;5071242;28;20025;-45
2023/04/17 05:39:51;;;;;;;34.20;25.50;;;9.90;99.90;;;;;;5071435;28;20029;-48
2023/04/17 05:42:16;;;;;;;38.30;27.02;;;9.90;99.90;;;;;;5070998;28;20020;-47
2023/04/17 05:44:42;;;;;;;34.03;25.58;;;9.90;99.90;;;;;;5070827;28;20033;-49
2023/04/17 05:47:07;;;;;;;40.85;27.92;;;9.90;99.90;;;;;;5071000;28;20078;-55
2023/04/17 05:49:33;;;;;;;38.58;28.27;;;9.90;99.90;;;;;;5075021;28;20527;-47
2023/04/17 05:51:58;;;;;;;40.40;28.15;;;9.90;99.90;;;;;;5074761;28;20016;-45
2023/04/17 05:54:26;;;;;;;40.70;28.73;;;9.90;99.90;;;;;;5074543;28;20506;-48
2023/04/17 05:56:52;;;;;;;39.35;27.73;;;9.90;99.90;;;;;;5074557;28;20020;-46
2023/04/17 05:59:17;;;;;;;42.38;28.40;;;9.90;99.90;;;;;;5074151;28;20110;-45
2023/04/17 06:01:43;;;;;;;39.63;28.70;;;9.90;99.90;;;;;;5074570;28;20043;-46
2023/04/17 06:04:08;;;;;;;40.35;28.33;;;9.90;99.90;;;;;;5056545;28;20029;-47
2023/04/17 06:06:34;;;;;;;37.83;27.00;;;10.00;99.90;;;;;;5074364;28;20082;-44
2023/04/17 06:09:00;;;;;;;38.50;27.52;;;9.90;99.90;;;;;;5074229;28;20112;-50
2023/04/17 06:11:26;;;;;;;39.33;26.60;;;9.90;99.90;;;;;;5074042;28;20028;-49
2023/04/17 06:13:51;;;;;;;38.60;26.75;;;9.90;99.90;;;;;;5074144;28;20230;-50
2023/04/17 06:16:17;;;;;;;39.40;27.88;;;9.90;99.90;;;;;;5074117;28;20107;-41
2023/04/17 06:18:42;;;;;;;41.60;27.38;;;10.00;99.90;;;;;;5074091;28;20074;-47
2023/04/17 06:21:08;;;;;;;38.75;27.83;;;10.10;99.90;;;;;;5074381;28;20036;-48
2023/04/17 06:23:33;;;;;;;38.25;25.88;;;10.10;99.90;;;;;;5073918;28;20046;-46
2023/04/17 06:25:59;;;;;;;36.13;24.48;;;10.30;99.90;;;;;;5073901;28;20016;-49
2023/04/17 06:28:24;;;;;;;32.45;23.73;;;10.40;99.90;;;;;;5073744;28;20020;-44
2023/04/17 06:30:50;;;;;;;29.60;22.02;;;10.80;99.90;;;;;;5073884;28;20023;-46
2023/04/17 06:33:16;;;;;;;29.45;21.73;;;;;;;;;;5073807;28;20024;-45
2023/04/17 06:35:41;;;;;;;26.92;20.63;;;12.30;99.90;;;;;;5074037;28;20411;-49
2023/04/17 06:38:07;;;;;;;26.33;19.95;;;13.00;99.90;;;;;;5073793;28;20488;-49
2023/04/17 06:40:33;;;;;;;25.80;19.02;;;14.90;99.90;;;;;;5073927;28;20037;-48
2023/04/17 06:42:59;;;;;;;27.17;18.10;;;15.00;99.90;;;;;;5073765;28;20029;-46
2023/04/17 06:45:24;;;;;;;24.63;19.42;;;15.00;99.90;;;;;;5073588;28;20047;-50
2023/04/17 06:47:50;;;;;;;23.17;18.50;;;14.70;99.90;;;;;;5073897;28;20031;-43
2023/04/17 06:50:15;;;;;;;25.30;18.25;;;14.00;99.90;;;;;;5073426;28;20020;-49
2023/04/17 06:52:41;;;;;;;23.77;18.05;;;13.60;99.90;;;;;;5073682;28;20028;-48
2023/04/17 06:55:08;;;;;;;28.42;20.45;;;12.60;99.90;;;;;;5073509;28;20020;-49
2023/04/17 06:57:33;;;;;;;24.77;18.98;;;12.20;99.90;;;;;;5074113;28;20049;-49
2023/04/17 06:59:59;;;;;;;25.10;19.30;;;12.40;99.90;;;;;;5072081;28;20562;-50
2023/04/17 07:02:24;;;;;;;25.75;18.92;;;12.30;99.90;;;;;;5073850;28;20029;-43
2023/04/17 07:04:50;;;;;;;29.00;20.45;;;12.10;99.90;;;;;;5073610;28;20048;-51
2023/04/17 07:07:15;;;;;;;31.00;19.20;;;11.90;99.90;;;;;;5073343;28;20046;-49
2023/04/17 07:09:41;;;;;;;28.67;19.90;;;11.70;99.90;;;;;;5073487;28;20032;-42
2023/04/17 07:12:07;;;;;;;27.70;20.48;;;11.60;99.90;;;;;;5073664;28;20024;-49
2023/04/17 07:14:34;;;;;;;28.50;19.85;;;11.20;99.90;;;;;;5073593;28;20069;-47
2023/04/17 07:17:00;;;;;;;25.08;19.25;;;11.10;99.90;;;;;;5073751;28;20020;-48
2023/04/17 07:19:25;;;;;;;27.65;20.17;;;11.10;99.90;;;;;;5072911;28;20086;-47
2023/04/17 07:21:51;;;;;;;29.85;20.98;;;11.10;99.90;;;;;;5073403;28;20052;-47
2023/04/17 07:24:16;;;;;;;25.48;18.75;;;11.20;99.90;;;;;;5072769;28;20066;-47
2023/04/17 07:26:42;;;;;;;25.70;18.23;;;11.10;99.90;;;;;;5073030;28;20089;-48
2023/04/17 07:29:08;;;;;;;23.63;18.20;;;11.30;99.90;;;;;;5072905;28;20032;-47
2023/04/17 07:31:34;;;;;;;24.92;19.02;;;11.50;99.90;;;;;;5072832;28;20115;-48
2023/04/17 07:34:00;;;;;;;28.58;17.30;;;11.70;99.90;;;;;;5072972;28;20560;-50
2023/04/17 07:36:27;;;;;;;22.75;16.60;;;11.90;99.90;;;;;;5072809;28;20368;-48
2023/04/17 07:38:53;;;;;;;21.20;17.15;;;12.00;99.90;;;;;;5072523;28;20017;-44
2023/04/17 07:41:18;;;;;;;20.27;16.17;;;12.30;99.90;;;;;;5072831;28;20028;-46
2023/04/17 07:43:44;;;;;;;22.83;17.08;;;12.50;99.90;;;;;;5072477;28;20024;-48
2023/04/17 07:46:09;;;;;;;21.75;15.73;;;12.30;99.90;;;;;;5072749;28;20032;-50
2023/04/17 07:48:35;;;;;;;23.73;17.23;;;12.30;99.90;;;;;;5072828;28;20025;-46
2023/04/17 07:51:00;;;;;;;25.63;18.40;;;12.20;99.90;;;;;;5072541;28;20029;-45
2023/04/17 07:53:27;;;;;;;21.05;16.60;;;12.10;99.90;;;;;;5072090;28;20023;-47
2023/04/17 07:55:57;;;;;;;20.50;16.20;;;12.20;99.90;;;;;;5072383;28;20024;-44
2023/04/17 07:58:22;;;;;;;22.23;17.17;;;12.10;99.90;;;;;;5072503;28;20078;-49
2023/04/17 08:00:49;;;;;;;20.10;16.40;;;11.90;99.90;;;;;;5072436;28;20028;-47
2023/04/17 08:03:15;;;;;;;26.55;17.05;;;11.80;99.90;;;;;;5072242;28;20153;-41
2023/04/17 08:05:40;;;;;;;25.83;17.38;;;11.70;99.90;;;;;;5072024;28;20038;-47
2023/04/17 08:08:06;;;;;;;23.17;17.80;;;11.60;99.90;;;;;;5071678;28;20060;-45
2023/04/17 08:10:32;;;;;;;21.83;16.38;;;11.50;99.90;;;;;;5071409;28;20035;-45
2023/04/17 08:12:57;;;;;;;23.30;16.05;;;11.50;99.90;;;;;;5071987;28;20024;-47
2023/04/17 08:15:23;;;;;;;23.23;16.15;;;11.60;99.90;;;;;;5071867;28;20048;-47
2023/04/17 08:17:49;;;;;;;21.77;15.95;;;11.50;99.90;;;;;;5072138;28;20086;-46
2023/04/17 08:20:16;;;;;;;21.33;16.23;;;11.50;99.90;;;;;;5071542;28;20133;-44
2023/04/17 08:22:44;;;;;;;22.13;16.67;;;11.60;99.90;;;;;;5072248;28;20043;-45
2023/04/17 08:25:11;;;;;;;23.88;16.67;;;11.60;99.90;;;;;;5072021;28;20020;-45
2023/04/17 08:27:39;;;;;;;22.73;16.05;;;11.40;99.90;;;;;;5071846;28;20067;-47
2023/04/17 08:30:05;;;;;;;19.70;15.52;;;11.40;99.90;;;;;;5071561;28;20041;-40
2023/04/17 08:32:41;;;;;;;23.45;17.25;;;11.60;99.90;;;;;;5071692;28;20402;-46
2023/04/17 08:35:11;;;;;;;25.25;15.25;;;11.60;99.90;;;;;;5071608;28;20021;-50
2023/04/17 08:37:38;;;;;;;23.85;16.83;;;11.50;99.90;;;;;;5071858;28;20071;-49
2023/04/17 08:40:08;;;;;;;24.63;16.90;;;11.50;99.90;;;;;;5071617;28;20025;-45
2023/04/17 08:42:39;;;;;;;23.27;15.57;;;11.60;99.90;;;;;;5071180;28;20108;-50
2023/04/17 08:45:10;;;;;;;22.80;16.92;;;11.60;99.90;;;;;;5070956;28;20398;-49
2023/04/17 08:47:39;;;;;;;22.88;15.48;;;11.70;99.90;;;;;;5063994;28;20084;-48
2023/04/17 08:50:07;;;;;;;21.25;15.75;;;11.80;99.90;;;;;;5058720;28;20059;-50
2023/04/17 08:52:34;;;;;;;20.80;16.33;;;11.80;99.90;;;;;;5070780;28;20035;-51
2023/04/17 08:55:00;;;;;;;21.63;15.95;;;11.90;99.90;;;;;;5070906;28;20429;-47
2023/04/17 08:57:26;;;;;;;25.08;17.17;;;12.00;99.90;;;;;;5071063;28;20100;-48
2023/04/17 08:59:51;;;;;;;23.58;16.73;;;11.90;99.90;;;;;;5071379;28;20056;-47
2023/04/17 09:02:17;;;;;;;21.90;17.55;;;11.90;99.90;;;;;;5070416;28;20036;-52
2023/04/17 09:04:43;;;;;;;24.13;17.15;;;11.80;99.90;;;;;;5071200;28;20429;-49
2023/04/17 09:07:10;;;;;;;24.75;17.40;;;11.60;99.90;;;;;;5071870;28;20033;-46
2023/04/17 09:09:47;;;;;;;27.52;17.92;;;11.50;99.90;;;;;;5071445;28;20593;-54
2023/04/17 09:12:13;;;;;;;26.08;17.17;;;11.60;99.90;;;;;;5051625;28;20055;-52
2023/04/17 09:14:38;;;;;;;27.17;17.92;;;11.50;99.90;;;;;;5051582;28;20500;-47
2023/04/17 09:17:04;;;;;;;20.40;16.08;;;11.40;99.90;;;;;;5051405;28;20029;-47
2023/04/17 09:19:30;;;;;;;22.85;16.00;;;11.50;99.90;;;;;;5051197;28;20385;-49
2023/04/17 09:21:56;;;;;;;22.15;16.58;;;11.50;99.90;;;;;;5052249;28;20025;-47
2023/04/17 09:24:36;;;;;;;25.55;17.00;;;11.50;99.90;;;;;;5074429;28;20051;-53
2023/04/17 09:27:25;;;;;;;24.55;17.90;;;11.40;99.90;;;;;;5075271;28;20020;-47
2023/04/17 09:30:05;;;;;;;20.05;15.88;;;11.30;99.90;;;;;;5075527;28;20023;-50
2023/04/17 09:32:32;;;;;;;27.75;18.55;;;11.20;99.90;;;;;;5075477;28;20027;-47
2023/04/17 09:35:00;;;;;;;28.20;19.23;;;11.20;99.90;;;;;;5075163;28;20437;-50
2023/04/17 09:37:46;;;;;;;24.33;17.02;;;11.30;99.90;;;;;;5075157;28;20086;-49
2023/04/17 09:40:11;;;;;;;;;;;11.30;99.90;;;;;;5074787;28;20107;-47
2023/04/17 09:42:51;;;;;;;;;;;11.20;99.90;;;;;;5055391;28;19955;-51
2023/04/17 09:45:18;;;;;;;21.48;16.20;;;11.30;99.90;;;;;;5054848;28;19905;-49
2023/04/17 09:47:46;;;;;;;25.42;15.85;;;11.30;99.90;;;;;;5054997;28;20033;-52
2023/04/17 09:50:17;;;;;;;22.27;14.77;;;11.20;99.90;;;;;;5054726;28;20033;-45
2023/04/17 09:52:43;;;;;;;17.55;13.55;;;11.10;99.90;;;;;;5074727;28;20077;-50
2023/04/17 09:55:10;;;;;;;20.67;13.88;;;11.00;99.90;;;;;;5074541;28;20023;-51
2023/04/17 09:57:39;;;;;;;20.10;13.80;;;11.00;99.90;;;;;;5059532;28;20269;-51
2023/04/17 10:00:12;;;;;;;23.65;14.45;;;10.90;99.90;;;;;;5065146;28;20521;-44
2023/04/17 10:02:40;;;;;;;23.48;13.68;;;11.00;99.90;;;;;;5072363;28;20028;-51
2023/04/17 10:05:07;;;;;;;19.17;14.00;;;11.00;99.90;;;;;;5074242;28;20028;-48
2023/04/17 10:07:35;;;;;;;15.48;12.40;;;11.10;99.90;;;;;;5074285;28;20020;-50
2023/04/17 10:10:07;;;;;;;13.23;10.77;;;11.30;99.90;;;;;;5074311;28;20013;-49
2023/04/17 10:12:35;;;;;;;12.63;10.68;;;11.40;99.90;;;;;;5074446;28;20016;-50
2023/04/17 10:15:01;;;;;;;15.65;9.52;;;11.50;99.90;;;;;;5074761;28;20534;-46
2023/04/17 10:17:30;;;;;;;13.15;9.18;;;11.70;99.90;;;;;;5074161;28;20037;-44
2023/04/17 10:19:56;;;;;;;13.27;10.15;;;11.90;99.90;;;;;;5073832;28;20620;-49
2023/04/17 10:22:22;;;;;;;14.68;9.93;;;12.10;99.90;;;;;;5074365;28;20035;-48
2023/04/17 10:24:50;;;;;;;13.13;9.93;;;12.30;99.90;;;;;;5074337;28;20407;-47
2023/04/17 10:27:25;;;;;;;13.70;10.07;;;12.50;99.90;;;;;;5059855;28;20036;-47
2023/04/17 10:29:54;;;;;;;14.18;10.68;;;12.80;99.90;;;;;;5056728;28;20384;-47
2023/04/17 10:32:23;;;;;;;18.38;10.13;;;13.10;99.90;;;;;;5073912;28;20025;-45
2023/04/17 10:34:49;;;;;;;62.00;38.30;;;13.20;99.90;;;;;;5072624;28;20040;-47
2023/04/17 10:37:14;;;;;;;14.73;10.90;;;13.30;99.90;;;;;;5057517;28;20060;-49
2023/04/17 10:40:01;;;;;;;14.07;9.88;;;13.50;99.90;;;;;;5053615;28;20033;-49
2023/04/17 10:42:28;;;;;;;13.68;10.52;;;13.60;99.90;;;;;;5061092;28;20032;-46
2023/04/17 10:45:03;;;;;;;13.63;10.50;;;13.20;99.90;;;;;;5072892;28;20032;-42
2023/04/17 10:47:32;;;;;;;16.35;10.43;;;13.10;99.90;;;;;;5073410;28;20021;-50
2023/04/17 10:49:59;;;;;;;12.90;9.68;;;13.10;99.90;;;;;;5073497;28;20048;-45
2023/04/17 10:52:31;;;;;;;13.38;10.07;;;13.20;99.90;;;;;;5073696;28;20361;-46
2023/04/17 10:55:13;;;;;;;13.27;8.82;;;12.80;99.90;;;;;;5052553;28;20028;-49
2023/04/17 10:57:55;;;;;;;11.68;9.60;;;12.60;99.90;;;;;;5053885;28;20033;-46
2023/04/17 11:00:51;;;;;;;9.98;8.98;;;12.50;99.90;;;;;;5061081;28;20387;-46
2023/04/17 11:03:20;;;;;;;10.57;9.02;;;12.40;99.90;;;;;;5070194;28;20480;-48
2023/04/17 11:05:46;;;;;;;9.35;8.32;;;12.40;99.90;;;;;;5052763;28;20048;-53
2023/04/17 11:08:12;;;;;;;14.77;9.45;;;12.40;99.90;;;;;;5051259;28;20064;-50
2023/04/17 11:10:38;;;;;;;17.27;9.65;;;12.40;99.90;;;;;;5051736;28;20459;-47
2023/04/17 11:13:04;;;;;;;13.90;9.13;;;12.50;99.90;;;;;;5053307;28;20377;-47
2023/04/17 11:15:33;;;;;;;10.00;8.25;;;12.50;99.90;;;;;;5053944;28;20024;-50
2023/04/17 11:17:59;;;;;;;10.82;6.82;;;12.50;99.90;;;;;;5053713;28;20057;-48
2023/04/17 11:20:28;;;;;;;7.90;5.47;;;12.50;99.90;;;;;;5052665;28;20413;-47
2023/04/17 11:22:55;;;;;;;5.70;4.80;;;12.60;99.90;;;;;;5053100;28;20513;-46
2023/04/17 11:25:25;;;;;;;4.53;3.65;;;12.50;99.90;;;;;;5052765;28;20404;-49
2023/04/17 11:27:55;;;;;;;7.03;4.50;;;12.40;99.90;;;;;;5052925;28;20043;-46
2023/04/17 11:30:44;;;;;;;3.95;3.38;;;12.40;99.90;;;;;;5034621;28;20017;-51
2023/04/17 11:33:11;;;;;;;4.43;3.58;;;12.30;99.90;;;;;;5068461;28;20434;-45
2023/04/17 11:35:41;;;;;;;3.15;2.85;;;12.60;99.90;;;;;;5072314;28;20027;-47
2023/04/17 11:38:20;;;;;;;3.67;3.30;;;12.60;99.90;;;;;;5072685;28;20435;-47
2023/04/17 11:40:54;;;;;;;6.72;3.17;;;12.60;99.90;;;;;;5072640;28;20021;-46
2023/04/17 11:43:22;;;;;;;3.80;3.33;;;12.80;99.90;;;;;;5072463;28;20024;-45
2023/04/17 11:45:52;;;;;;;3.70;3.40;;;12.80;99.90;;;;;;5071195;28;20024;-49
2023/04/17 11:48:26;;;;;;;3.58;3.28;;;12.90;99.90;;;;;;5072521;28;20383;-46
2023/04/17 11:51:00;;;;;;;6.05;3.65;;;13.10;99.90;;;;;;5072413;28;20131;-48
2023/04/17 11:53:26;;;;;;;4.50;2.35;;;13.10;99.90;;;;;;5071339;28;20082;-49
2023/04/17 11:56:14;;;;;;;8.95;5.80;;;13.20;99.90;;;;;;5069844;28;20024;-46
2023/04/17 11:58:53;;;;;;;10.15;6.75;;;13.50;99.90;;;;;;5072524;28;20488;-48
2023/04/17 12:01:23;;;;;;;3.58;2.85;;;13.50;99.90;;;;;;5054387;28;20037;-53
2023/04/17 12:03:49;;;;;;;3.35;2.83;;;13.70;99.90;;;;;;5071804;28;20024;-52
2023/04/17 12:06:15;;;;;;;2.40;1.92;;;13.70;99.90;;;;;;5071750;28;20104;-58
2023/04/17 12:08:46;;;;;;;2.60;2.25;;;13.80;99.90;;;;;;5071636;28;20349;-53
2023/04/17 12:11:22;;;;;;;2.30;1.55;;;14.00;99.90;;;;;;5072035;28;20032;-55
2023/04/17 12:13:48;;;;;;;2.58;1.75;;;14.20;99.90;;;;;;5066799;28;20017;-52
2023/04/17 12:16:13;;;;;;;3.10;1.90;;;14.30;99.90;;;;;;5051886;28;20488;-53
2023/04/17 12:18:39;;;;;;;2.70;1.65;;;14.30;99.90;;;;;;5052115;28;20033;-54
2023/04/17 12:21:04;;;;;;;2.20;2.00;;;14.30;99.90;;;;;;5034763;28;20039;-55
2023/04/17 12:23:30;;;;;;;4.70;2.38;;;14.20;99.90;;;;;;5033814;28;20036;-55
2023/04/17 12:25:56;;;;;;;3.95;2.65;;;14.20;99.90;;;;;;5051733;28;20151;-56
2023/04/17 12:28:21;;;;;;;3.58;3.10;;;14.00;99.90;;;;;;5051689;28;20079;-52
2023/04/17 12:30:47;;;;;;;2.70;2.08;;;;;;;;;;5051396;28;20029;-52
2023/04/17 12:33:13;;;;;;;3.53;2.35;;;13.50;99.90;;;;;;5051531;28;20495;-52